Time;durP1;ratioP1;P1;durP2;ratioP2;P2;SDS_P1;SDS_P2;PMS_P1;PMS_P2;Temp;Humidity;BMP_temperature;BMP_pressure;BME280_temperature;BME280_humidity;BME280_pressure;Samples;Min_cycle;Max_cycle;Signal;HPM_P1;HPM_P2
2022/07/30 00:02:21;;;;;;;9.27;3.85;;;20.10;99.90;;;;;;5030784;28;20551;-50
2022/07/30 00:04:48;;;;;;;8.20;4.10;;;20.00;99.90;;;;;;5032201;28;20561;-46
2022/07/30 00:07:13;;;;;;;12.20;4.60;;;20.00;99.90;;;;;;5030026;28;20318;-52
2022/07/30 00:09:40;;;;;;;11.02;4.30;;;19.90;99.90;;;;;;5032189;28;20656;-45
2022/07/30 00:12:06;;;;;;;13.95;5.00;;;19.90;99.90;;;;;;5031296;28;20654;-48
2022/07/30 00:14:33;;;;;;;11.32;4.40;;;19.90;99.90;;;;;;5033715;28;20706;-46
2022/07/30 00:17:00;;;;;;;10.15;4.68;;;19.80;99.90;;;;;;5029939;28;20629;-45
2022/07/30 00:19:26;;;;;;;12.35;4.40;;;19.80;99.90;;;;;;5026124;28;20271;-49
2022/07/30 00:21:54;;;;;;;8.85;4.63;;;19.70;99.90;;;;;;5020590;28;20195;-47
2022/07/30 00:24:21;;;;;;;8.45;4.53;;;19.70;99.90;;;;;;5026533;28;20640;-50
2022/07/30 00:26:47;;;;;;;12.50;4.82;;;19.70;99.90;;;;;;5015889;28;20184;-48
2022/07/30 00:29:12;;;;;;;12.77;5.18;;;19.60;99.90;;;;;;5014939;28;20587;-51
2022/07/30 00:31:39;;;;;;;10.30;4.63;;;19.60;99.90;;;;;;5036750;28;20211;-45
2022/07/30 00:34:04;;;;;;;17.27;5.53;;;19.60;99.90;;;;;;5013946;28;20247;-52
2022/07/30 00:36:30;;;;;;;12.77;5.10;;;19.50;99.90;;;;;;5032963;28;20696;-46
2022/07/30 00:38:56;;;;;;;9.27;4.47;;;19.50;99.90;;;;;;5013653;28;20660;-50
2022/07/30 00:41:22;;;;;;;13.98;4.90;;;19.50;99.90;;;;;;5024828;28;20644;-50
2022/07/30 00:43:48;;;;;;;13.20;4.82;;;19.50;99.90;;;;;;5032183;28;20199;-49
2022/07/30 00:46:14;;;;;;;14.32;5.15;;;19.50;99.90;;;;;;5015015;28;20189;-50
2022/07/30 00:48:40;;;;;;;8.77;4.68;;;19.50;99.90;;;;;;5031515;28;20184;-48
2022/07/30 00:51:06;;;;;;;9.95;4.63;;;19.50;99.90;;;;;;5031387;28;20192;-49
2022/07/30 00:53:33;;;;;;;11.15;4.80;;;19.40;99.90;;;;;;5013622;28;20177;-48
2022/07/30 00:55:59;;;;;;;10.60;4.88;;;19.40;99.90;;;;;;5010238;28;20222;-47
2022/07/30 00:58:25;;;;;;;9.95;4.55;;;19.30;99.90;;;;;;5033024;28;20551;-55
2022/07/30 01:00:50;;;;;;;10.13;4.82;;;19.30;99.90;;;;;;5027925;28;20191;-45
2022/07/30 01:03:16;;;;;;;8.38;4.60;;;19.30;99.90;;;;;;5023394;28;20176;-48
2022/07/30 01:05:42;;;;;;;11.75;4.68;;;19.30;99.90;;;;;;5012873;28;20188;-47
2022/07/30 01:08:08;;;;;;;10.48;4.57;;;19.30;99.90;;;;;;5013534;28;20193;-46
2022/07/30 01:10:34;;;;;;;10.55;4.60;;;19.30;99.90;;;;;;5011027;28;20196;-46
2022/07/30 01:13:00;;;;;;;10.50;4.65;;;19.20;99.90;;;;;;5029637;28;20221;-45
2022/07/30 01:15:28;;;;;;;10.43;4.70;;;19.20;99.90;;;;;;5029239;28;20188;-49
2022/07/30 01:17:58;;;;;;;16.67;7.15;;;19.20;99.90;;;;;;5011163;28;20212;-46
2022/07/30 01:20:54;;;;;;;11.93;7.25;;;19.20;99.90;;;;;;5026710;28;20188;-55
2022/07/30 01:23:19;;;;;;;12.73;5.95;;;19.10;99.90;;;;;;5020373;28;20191;-49
2022/07/30 01:26:00;;;;;;;9.48;4.75;;;19.10;99.90;;;;;;5027742;28;20184;-45
2022/07/30 01:28:31;;;;;;;10.95;4.53;;;19.10;99.90;;;;;;5012207;28;20196;-47
2022/07/30 01:31:00;;;;;;;10.88;4.88;;;19.20;99.90;;;;;;5012321;28;20180;-48
2022/07/30 01:33:28;;;;;;;9.07;4.32;;;19.10;99.90;;;;;;5019733;28;20591;-46
2022/07/30 01:35:55;;;;;;;8.00;4.13;;;19.10;99.90;;;;;;5022408;28;20251;-49
2022/07/30 01:38:26;;;;;;;9.48;4.60;;;19.10;99.90;;;;;;5016029;28;20215;-47
2022/07/30 01:40:53;;;;;;;13.32;4.15;;;19.10;99.90;;;;;;5027227;28;20283;-49
2022/07/30 01:43:21;;;;;;;9.55;4.13;;;19.10;99.90;;;;;;5018621;28;20176;-51
2022/07/30 01:45:49;;;;;;;12.57;4.03;;;19.10;99.90;;;;;;5026851;28;20177;-52
2022/07/30 01:48:19;;;;;;;10.02;4.35;;;19.00;99.90;;;;;;5043761;28;20234;-51
2022/07/30 01:50:50;;;;;;;9.48;3.88;;;19.00;99.90;;;;;;5010869;28;20199;-50
2022/07/30 01:53:19;;;;;;;14.05;4.00;;;18.90;99.90;;;;;;5028394;28;20181;-48
2022/07/30 01:55:46;;;;;;;8.32;3.42;;;19.00;99.90;;;;;;5013438;28;20196;-50
2022/07/30 01:58:14;;;;;;;14.10;3.92;;;18.90;99.90;;;;;;5016467;28;20232;-49
2022/07/30 02:00:45;;;;;;;10.48;6.97;;;18.80;99.90;;;;;;5010928;28;20255;-51
2022/07/30 02:03:11;;;;;;;17.02;5.43;;;18.80;99.90;;;;;;5011603;28;20192;-48
2022/07/30 02:05:40;;;;;;;10.90;3.83;;;18.80;99.90;;;;;;5018830;28;20189;-54
2022/07/30 02:08:14;;;;;;;9.23;3.67;;;18.80;99.90;;;;;;5017412;28;20173;-49
2022/07/30 02:10:48;;;;;;;8.63;3.92;;;18.90;99.90;;;;;;5040346;28;20281;-46
2022/07/30 02:13:25;;;;;;;9.40;3.63;;;18.80;99.90;;;;;;5027734;28;20223;-49
2022/07/30 02:15:58;;;;;;;9.90;3.80;;;18.80;99.90;;;;;;5029511;28;20582;-50
2022/07/30 02:18:39;;;;;;;8.52;3.65;;;18.80;99.90;;;;;;5028067;28;20211;-49
2022/07/30 02:21:07;;;;;;;11.98;3.80;;;18.70;99.90;;;;;;5026921;28;20551;-50
2022/07/30 02:23:55;;;;;;;6.18;3.65;;;18.70;99.90;;;;;;5028503;28;20560;-48
2022/07/30 02:26:22;;;;;;;12.13;3.92;;;18.70;99.90;;;;;;5027309;28;20239;-50
2022/07/30 02:28:52;;;;;;;11.20;3.90;;;18.70;99.90;;;;;;5022916;28;20176;-50
2022/07/30 02:31:25;;;;;;;7.10;3.20;;;18.60;99.90;;;;;;5030620;28;20270;-50
2022/07/30 02:33:58;;;;;;;13.73;3.38;;;18.60;99.90;;;;;;5034196;28;20263;-48
2022/07/30 02:36:27;;;;;;;14.48;4.00;;;18.60;99.90;;;;;;5032663;28;20192;-56
2022/07/30 02:38:54;;;;;;;7.35;3.58;;;18.60;99.90;;;;;;5016471;28;20582;-50
2022/07/30 02:41:24;;;;;;;9.20;3.72;;;18.60;99.90;;;;;;5033138;28;20176;-50
2022/07/30 02:43:52;;;;;;;8.77;3.55;;;18.60;99.90;;;;;;5034211;28;20567;-47
2022/07/30 02:46:22;;;;;;;10.05;3.70;;;18.50;99.90;;;;;;5025832;28;20230;-49
2022/07/30 02:49:21;;;;;;;10.05;3.70;;;18.60;99.90;;;;;;5021509;28;20205;-49
2022/07/30 02:51:49;;;;;;;10.50;3.75;;;18.50;99.90;;;;;;5023279;28;20374;-48
2022/07/30 02:54:18;;;;;;;10.48;4.07;;;18.50;99.90;;;;;;5021182;28;20225;-50
2022/07/30 02:56:46;;;;;;;8.55;3.85;;;18.50;99.90;;;;;;5025247;28;20753;-50
2022/07/30 02:59:14;;;;;;;7.32;3.58;;;18.50;99.90;;;;;;5029460;28;20184;-50
2022/07/30 03:01:42;;;;;;;9.23;3.47;;;18.50;99.90;;;;;;5021311;28;20520;-51
2022/07/30 03:04:09;;;;;;;13.93;4.45;;;18.50;99.90;;;;;;5029815;28;20189;-52
2022/07/30 03:06:36;;;;;;;9.73;3.78;;;18.40;99.90;;;;;;5045822;28;20236;-49
2022/07/30 03:09:04;;;;;;;8.88;3.88;;;18.40;99.90;;;;;;5025715;28;20258;-47
2022/07/30 03:11:31;;;;;;;12.45;4.22;;;18.30;99.90;;;;;;5021749;28;20635;-48
2022/07/30 03:13:56;;;;;;;9.68;4.10;;;18.30;99.90;;;;;;5019378;28;20586;-49
2022/07/30 03:16:25;;;;;;;9.32;4.18;;;18.20;99.90;;;;;;5023536;28;20226;-52
2022/07/30 03:18:52;;;;;;;10.82;4.13;;;18.10;99.90;;;;;;5013017;28;20180;-50
2022/07/30 03:21:21;;;;;;;12.90;3.92;;;18.10;99.90;;;;;;5032066;28;20230;-47
2022/07/30 03:23:48;;;;;;;11.05;4.38;;;18.10;99.90;;;;;;5033088;28;20176;-51
2022/07/30 03:26:18;;;;;;;7.95;4.10;;;18.10;99.90;;;;;;5019461;28;20195;-49
2022/07/30 03:28:47;;;;;;;8.15;3.90;;;18.00;99.90;;;;;;5034406;28;20533;-49
2022/07/30 03:31:15;;;;;;;7.40;3.75;;;18.00;99.90;;;;;;5027857;28;20184;-53
2022/07/30 03:33:42;;;;;;;7.45;3.55;;;18.00;99.90;;;;;;5022525;28;20744;-46
2022/07/30 03:36:11;;;;;;;10.13;4.82;;;18.00;99.90;;;;;;5032236;28;20266;-45
2022/07/30 03:38:38;;;;;;;7.40;4.20;;;17.90;99.90;;;;;;5032783;28;20248;-45
2022/07/30 03:41:06;;;;;;;8.68;4.32;;;17.90;99.90;;;;;;5029875;28;20184;-50
2022/07/30 03:43:34;;;;;;;10.63;4.70;;;18.00;99.90;;;;;;5021340;28;20698;-49
2022/07/30 03:46:03;;;;;;;11.55;5.00;;;18.00;99.90;;;;;;5018668;28;20542;-46
2022/07/30 03:48:35;;;;;;;12.10;4.03;;;18.00;99.90;;;;;;5035918;28;20179;-46
2022/07/30 03:51:08;;;;;;;9.50;3.92;;;18.00;99.90;;;;;;5018035;28;20181;-49
2022/07/30 03:53:34;;;;;;;9.88;4.68;;;18.00;99.90;;;;;;5014576;28;20271;-53
2022/07/30 03:56:35;;;;;;;12.43;4.28;;;18.00;99.90;;;;;;5020492;28;20196;-45
2022/07/30 03:59:06;;;;;;;10.73;4.30;;;18.00;99.90;;;;;;5016569;28;20203;-52
2022/07/30 04:01:35;;;;;;;11.10;4.10;;;17.90;99.90;;;;;;5021148;28;20267;-51
2022/07/30 04:04:10;;;;;;;8.80;4.00;;;17.90;99.90;;;;;;5029634;28;20184;-52
2022/07/30 04:06:41;;;;;;;7.78;4.10;;;17.80;99.90;;;;;;5026251;28;20251;-47
2022/07/30 04:09:09;;;;;;;13.55;4.65;;;17.80;99.90;;;;;;5030209;28;20186;-47
2022/07/30 04:11:36;;;;;;;11.52;5.10;;;17.80;99.90;;;;;;5002657;28;20672;-49
2022/07/30 04:14:06;;;;;;;9.25;4.57;;;17.80;99.90;;;;;;5026708;28;20222;-46
2022/07/30 04:16:53;;;;;;;13.77;4.63;;;17.90;99.90;;;;;;5019871;28;20588;-48
2022/07/30 04:19:28;;;;;;;12.85;4.43;;;17.80;99.90;;;;;;4996883;28;20216;-46
2022/07/30 04:21:57;;;;;;;21.92;4.30;;;17.80;99.90;;;;;;5025139;28;20195;-49
2022/07/30 04:24:24;;;;;;;10.15;4.47;;;17.90;99.90;;;;;;5021934;28;20168;-52
2022/07/30 04:26:52;;;;;;;15.20;4.00;;;17.90;99.90;;;;;;5024100;28;20199;-47
2022/07/30 04:29:19;;;;;;;11.45;4.18;;;17.90;99.90;;;;;;5029196;28;20274;-49
2022/07/30 04:31:45;;;;;;;11.10;4.20;;;17.90;99.90;;;;;;5025119;28;20623;-50
2022/07/30 04:34:32;;;;;;;10.57;4.13;;;17.90;99.90;;;;;;5030986;28;20535;-47
2022/07/30 04:36:59;;;;;;;7.60;4.03;;;17.90;99.90;;;;;;5012743;28;20204;-48
2022/07/30 04:39:25;;;;;;;6.28;3.67;;;17.90;99.90;;;;;;5021931;28;20188;-54
2022/07/30 04:41:51;;;;;;;9.38;4.47;;;17.90;99.90;;;;;;5036003;28;20247;-50
2022/07/30 04:44:37;;;;;;;9.35;4.07;;;17.90;99.90;;;;;;5026443;28;20279;-49
2022/07/30 04:47:23;;;;;;;11.93;3.97;;;17.90;99.90;;;;;;5021226;28;20253;-50
2022/07/30 04:50:06;;;;;;;7.75;3.88;;;17.90;99.90;;;;;;5022349;28;20666;-47
2022/07/30 04:52:34;;;;;;;9.23;4.25;;;18.00;99.90;;;;;;5029036;28;20211;-50
2022/07/30 04:55:04;;;;;;;8.73;3.80;;;18.00;99.90;;;;;;5028457;28;20253;-50
2022/07/30 04:57:30;;;;;;;11.75;3.83;;;18.00;99.90;;;;;;5017765;28;20223;-47
2022/07/30 04:59:57;;;;;;;8.90;3.83;;;18.10;99.90;;;;;;5011916;28;20188;-51
2022/07/30 05:02:28;;;;;;;7.00;3.55;;;18.10;99.90;;;;;;5027449;28;20639;-48
2022/07/30 05:04:55;;;;;;;9.15;3.35;;;18.10;99.90;;;;;;5032828;28;20176;-53
2022/07/30 05:07:22;;;;;;;5.20;3.40;;;18.20;99.90;;;;;;5014912;28;20712;-49
2022/07/30 05:09:49;;;;;;;6.95;3.60;;;18.20;99.90;;;;;;5028197;28;20198;-47
2022/07/30 05:12:14;;;;;;;8.77;3.38;;;18.20;99.90;;;;;;5011918;28;20275;-50
2022/07/30 05:14:40;;;;;;;7.85;3.35;;;18.30;99.90;;;;;;5020209;28;20263;-48
2022/07/30 05:17:07;;;;;;;5.53;3.22;;;18.30;99.90;;;;;;5002665;28;20661;-47
2022/07/30 05:19:33;;;;;;;10.00;3.63;;;18.40;99.90;;;;;;5023788;28;20187;-47
2022/07/30 05:21:59;;;;;;;13.32;3.60;;;18.50;99.90;;;;;;5028055;28;20269;-50
2022/07/30 05:24:25;;;;;;;10.15;3.60;;;18.50;99.90;;;;;;5016055;28;20189;-55
2022/07/30 05:26:55;;;;;;;8.25;3.42;;;18.50;99.90;;;;;;5013598;28;20279;-50
2022/07/30 05:29:22;;;;;;;5.95;3.00;;;18.60;99.90;;;;;;5012228;28;20195;-52
2022/07/30 05:32:00;;;;;;;7.93;2.90;;;18.60;99.90;;;;;;5021443;28;20666;-49
2022/07/30 05:34:26;;;;;;;7.50;2.83;;;18.70;99.90;;;;;;5027370;28;20258;-54
2022/07/30 05:36:53;;;;;;;4.20;2.40;;;18.70;99.90;;;;;;5020130;28;20223;-48
2022/07/30 05:39:20;;;;;;;4.03;2.13;;;18.80;99.90;;;;;;5021752;28;20210;-49
2022/07/30 05:41:53;;;;;;;6.95;2.72;;;18.80;99.90;;;;;;5027377;28;20192;-50
2022/07/30 05:44:39;;;;;;;6.00;2.83;;;18.90;99.90;;;;;;5024325;28;20194;-50
2022/07/30 05:47:05;;;;;;;7.78;2.50;;;18.90;99.90;;;;;;4999708;28;20192;-47
2022/07/30 05:49:31;;;;;;;8.02;2.83;;;19.00;99.90;;;;;;5015074;28;20231;-56
2022/07/30 05:52:05;;;;;;;7.88;2.97;;;19.00;99.90;;;;;;5021627;28;20180;-52
2022/07/30 05:54:30;;;;;;;6.05;2.28;;;19.00;99.90;;;;;;5020952;28;20192;-50
2022/07/30 05:57:19;;;;;;;5.85;2.30;;;19.10;99.90;;;;;;5005596;28;20251;-54
2022/07/30 05:59:46;;;;;;;4.82;2.30;;;19.10;99.90;;;;;;5025532;28;21920;-52
2022/07/30 06:02:19;;;;;;;7.00;2.35;;;19.10;99.90;;;;;;5021050;28;20629;-48
2022/07/30 06:04:53;;;;;;;6.00;2.25;;;19.10;99.90;;;;;;5032070;28;20279;-52
2022/07/30 06:07:20;;;;;;;6.70;2.55;;;19.10;99.90;;;;;;5026036;28;20246;-50
2022/07/30 06:09:47;;;;;;;5.82;2.10;;;19.00;99.90;;;;;;5019388;28;20184;-51
2022/07/30 06:12:13;;;;;;;3.88;2.20;;;19.00;99.90;;;;;;5028848;28;20185;-44
2022/07/30 06:14:40;;;;;;;4.28;2.00;;;19.00;99.90;;;;;;5015593;28;20212;-46
2022/07/30 06:17:07;;;;;;;4.85;2.20;;;19.00;99.90;;;;;;5008084;28;20262;-49
2022/07/30 06:19:58;;;;;;;8.27;2.38;;;19.10;99.90;;;;;;5027957;28;20235;-52
2022/07/30 06:22:24;;;;;;;5.35;2.10;;;19.10;99.90;;;;;;5019531;28;20600;-50
2022/07/30 06:24:51;;;;;;;3.83;1.77;;;19.10;99.90;;;;;;5013580;28;20234;-48
2022/07/30 06:27:21;;;;;;;4.97;2.15;;;19.10;99.90;;;;;;5027258;28;20231;-48
2022/07/30 06:29:46;;;;;;;4.47;2.10;;;19.10;99.90;;;;;;5016685;28;20706;-45
2022/07/30 06:32:13;;;;;;;6.95;2.08;;;19.10;99.90;;;;;;5014967;28;20234;-47
2022/07/30 06:34:39;;;;;;;5.25;2.20;;;19.00;99.90;;;;;;5014531;28;20185;-53
2022/07/30 06:37:06;;;;;;;10.80;2.30;;;19.00;99.90;;;;;;5026878;28;20346;-51
2022/07/30 06:39:32;;;;;;;7.80;2.22;;;18.90;99.90;;;;;;5017275;28;20270;-51
2022/07/30 06:41:58;;;;;;;5.95;2.22;;;18.90;99.90;;;;;;5021405;28;20652;-53
2022/07/30 06:44:41;;;;;;;7.53;2.30;;;18.90;99.90;;;;;;5038996;28;20236;-54
2022/07/30 06:47:28;;;;;;;4.45;2.10;;;18.90;99.90;;;;;;5019782;28;20192;-52
2022/07/30 06:49:55;;;;;;;6.75;2.38;;;19.00;99.90;;;;;;5015660;28;20551;-52
2022/07/30 06:52:22;;;;;;;7.40;2.30;;;19.10;99.90;;;;;;5010605;28;20712;-53
2022/07/30 06:54:50;;;;;;;5.38;2.00;;;19.20;99.90;;;;;;5033514;28;20191;-51
2022/07/30 06:57:54;;;;;;;6.40;2.05;;;19.20;99.90;;;;;;5015296;28;20578;-51
2022/07/30 07:00:43;;;;;;;10.95;2.08;;;19.40;99.90;;;;;;5015374;28;20200;-49
2022/07/30 07:03:12;;;;;;;8.18;2.00;;;19.40;99.90;;;;;;5029198;28;20219;-52
2022/07/30 07:05:38;;;;;;;3.40;1.63;;;19.50;99.90;;;;;;5013397;28;20193;-58
2022/07/30 07:08:04;;;;;;;5.18;1.90;;;19.50;99.90;;;;;;5006550;28;20580;-46
2022/07/30 07:10:34;;;;;;;5.30;2.00;;;19.60;99.90;;;;;;5013681;28;20185;-52
2022/07/30 07:13:17;;;;;;;3.10;1.80;;;19.60;99.90;;;;;;5040349;28;20180;-53
2022/07/30 07:15:43;;;;;;;4.35;2.10;;;19.60;99.90;;;;;;5028624;28;20204;-51
2022/07/30 07:18:14;;;;;;;5.70;1.88;;;19.70;99.90;;;;;;5024283;28;20265;-48
2022/07/30 07:20:46;;;;;;;6.20;1.90;;;19.70;99.90;;;;;;5029514;28;20227;-49
2022/07/30 07:23:12;;;;;;;9.10;2.25;;;19.70;99.90;;;;;;5025578;28;20214;-52
2022/07/30 07:25:39;;;;;;;4.38;1.70;;;19.70;99.80;;;;;;5026414;28;20253;-50
2022/07/30 07:28:06;;;;;;;6.53;2.03;;;19.80;99.80;;;;;;5026995;28;20184;-51
2022/07/30 07:30:32;;;;;;;5.50;1.88;;;19.80;99.60;;;;;;5022293;28;20262;-51
2022/07/30 07:32:58;;;;;;;3.75;1.95;;;19.90;99.40;;;;;;5024847;28;20183;-51
2022/07/30 07:35:25;;;;;;;6.05;1.90;;;19.90;99.20;;;;;;5030033;28;20291;-50
2022/07/30 07:37:51;;;;;;;9.48;2.22;;;19.90;99.20;;;;;;5022964;28;20303;-50
2022/07/30 07:40:24;;;;;;;5.13;2.00;;;20.00;99.10;;;;;;5027854;28;20204;-56
2022/07/30 07:42:49;;;;;;;5.47;2.00;;;20.00;98.90;;;;;;5023069;28;20180;-48
2022/07/30 07:45:18;;;;;;;5.45;2.00;;;20.00;98.90;;;;;;5034026;28;20222;-53
2022/07/30 07:47:55;;;;;;;2.83;1.80;;;20.00;98.80;;;;;;5026675;28;20656;-48
2022/07/30 07:50:41;;;;;;;2.95;1.75;;;20.00;98.70;;;;;;5019856;28;20713;-52
2022/07/30 07:53:15;;;;;;;3.30;1.70;;;20.00;98.60;;;;;;5018674;28;20184;-50
2022/07/30 07:55:42;;;;;;;3.45;1.73;;;20.00;98.60;;;;;;5013532;28;20254;-48
2022/07/30 07:58:10;;;;;;;6.30;2.00;;;20.00;98.60;;;;;;5022006;28;20667;-51
2022/07/30 08:00:36;;;;;;;4.22;1.65;;;20.10;98.70;;;;;;5013567;28;20216;-48
2022/07/30 08:03:02;;;;;;;5.55;1.90;;;20.10;98.20;;;;;;5009709;28;20208;-54
2022/07/30 08:05:28;;;;;;;5.90;1.90;;;20.10;97.80;;;;;;5011851;28;20260;-53
2022/07/30 08:08:01;;;;;;;5.53;1.70;;;20.20;97.70;;;;;;5027678;28;20208;-53
2022/07/30 08:10:47;;;;;;;6.00;2.53;;;20.30;97.30;;;;;;5030086;28;20204;-50
2022/07/30 08:13:42;;;;;;;2.55;1.63;;;20.40;97.10;;;;;;5027548;28;20196;-51
2022/07/30 08:16:27;;;;;;;3.25;1.80;;;20.40;96.90;;;;;;5024255;28;20334;-53
2022/07/30 08:19:13;;;;;;;4.70;1.65;;;20.40;96.90;;;;;;5020163;28;20220;-50
2022/07/30 08:21:44;;;;;;;3.45;1.63;;;20.50;96.60;;;;;;5029060;28;20246;-48
2022/07/30 08:24:10;;;;;;;7.18;1.70;;;20.50;96.20;;;;;;5030050;28;20668;-49
2022/07/30 08:26:36;;;;;;;3.88;1.75;;;20.50;95.50;;;;;;5036963;28;20194;-52
2022/07/30 08:29:02;;;;;;;4.40;1.50;;;20.60;96.00;;;;;;5024976;28;20597;-52
2022/07/30 08:31:28;;;;;;;4.72;1.40;;;20.60;95.40;;;;;;5028814;28;20184;-46
2022/07/30 08:33:54;;;;;;;2.58;1.60;;;20.60;94.70;;;;;;5010822;28;20202;-49
2022/07/30 08:36:21;;;;;;;4.75;1.70;;;20.70;94.50;;;;;;5023385;28;20216;-51
2022/07/30 08:38:47;;;;;;;4.95;1.73;;;20.80;94.40;;;;;;5027314;28;20235;-50
2022/07/30 08:41:18;;;;;;;3.30;1.48;;;20.80;94.20;;;;;;5027160;28;20196;-47
2022/07/30 08:43:46;;;;;;;4.05;1.70;;;20.90;94.10;;;;;;5030292;28;20184;-47
2022/07/30 08:46:14;;;;;;;2.67;1.40;;;21.00;93.60;;;;;;5007757;28;20198;-49
2022/07/30 08:49:06;;;;;;;3.67;1.70;;;21.10;93.30;;;;;;5015364;28;20192;-53
2022/07/30 08:51:33;;;;;;;5.35;1.83;;;21.10;93.20;;;;;;5017417;28;20192;-51
2022/07/30 08:54:17;;;;;;;4.10;1.42;;;21.20;93.10;;;;;;5011973;28;20176;-49
2022/07/30 08:56:43;;;;;;;4.68;2.08;;;21.30;92.80;;;;;;5017525;28;20234;-50
2022/07/30 08:59:10;;;;;;;4.82;1.60;;;21.30;92.60;;;;;;5013329;28;20193;-53
2022/07/30 09:01:37;;;;;;;2.85;1.50;;;21.30;92.80;;;;;;5012578;28;20180;-52
2022/07/30 09:04:03;;;;;;;3.92;1.60;;;21.40;93.00;;;;;;5012020;28;20180;-53
2022/07/30 09:06:29;;;;;;;4.00;1.35;;;21.50;92.50;;;;;;4997081;28;20295;-53
2022/07/30 09:08:55;;;;;;;4.20;1.33;;;21.60;91.50;;;;;;5025746;28;20643;-51
2022/07/30 09:11:21;;;;;;;3.17;1.52;;;21.60;90.60;;;;;;5029143;28;20192;-52
2022/07/30 09:13:49;;;;;;;4.28;1.50;;;21.60;90.10;;;;;;5024207;28;20192;-49
2022/07/30 09:16:23;;;;;;;5.85;2.00;;;21.60;90.00;;;;;;5011290;28;20193;-53
2022/07/30 09:18:50;;;;;;;6.93;1.60;;;21.60;90.10;;;;;;5011251;28;20665;-51
2022/07/30 09:21:27;;;;;;;4.35;1.33;;;21.60;90.20;;;;;;5030482;28;20219;-51
2022/07/30 09:24:22;;;;;;;3.83;1.50;;;21.60;89.20;;;;;;5016231;28;20627;-51
2022/07/30 09:27:11;;;;;;;5.22;2.78;;;21.60;88.20;;;;;;5025086;28;20200;-50
2022/07/30 09:29:59;;;;;;;2.35;1.50;;;21.70;87.80;;;;;;5031478;28;20651;-53
2022/07/30 09:32:53;;;;;;;2.60;1.40;;;21.80;87.30;;;;;;5016579;28;20250;-52
2022/07/30 09:35:56;;;;;;;2.30;1.50;;;21.90;88.20;;;;;;5012368;28;20617;-51
2022/07/30 09:38:52;;;;;;;4.53;1.77;;;22.00;87.60;;;;;;5017965;28;20245;-50
2022/07/30 09:41:43;;;;;;;2.35;1.60;;;22.10;86.80;;;;;;5020679;28;20189;-49
2022/07/30 09:44:23;;;;;;;4.00;2.15;;;22.30;86.50;;;;;;5019947;28;20398;-53
2022/07/30 09:46:51;;;;;;;3.03;1.50;;;22.50;87.10;;;;;;5026582;28;20187;-52
2022/07/30 09:49:26;;;;;;;4.70;1.85;;;22.60;85.10;;;;;;5032615;28;20190;-50
2022/07/30 09:51:54;;;;;;;2.40;1.25;;;22.70;83.50;;;;;;5028677;28;20341;-52
2022/07/30 09:54:20;;;;;;;2.88;1.42;;;22.70;81.70;;;;;;5022005;28;20188;-52
2022/07/30 09:56:46;;;;;;;4.43;1.50;;;22.70;82.30;;;;;;5023228;28;20180;-53
2022/07/30 09:59:31;;;;;;;2.20;1.30;;;22.80;81.70;;;;;;5011683;28;20177;-53
2022/07/30 10:01:58;;;;;;;4.05;1.38;;;22.80;81.00;;;;;;5021711;28;20184;-51
2022/07/30 10:04:42;;;;;;;3.83;1.20;;;23.00;80.80;;;;;;5026350;28;20255;-51
2022/07/30 10:07:20;;;;;;;6.18;1.75;;;23.10;79.80;;;;;;5024150;28;20633;-49
2022/07/30 10:09:47;;;;;;;4.90;1.58;;;23.10;78.40;;;;;;5031838;28;20187;-49
2022/07/30 10:12:16;;;;;;;2.63;1.30;;;23.20;78.50;;;;;;5016177;28;20185;-52
2022/07/30 10:14:46;;;;;;;7.10;3.88;;;23.20;78.00;;;;;;5011170;28;20181;-45
2022/07/30 10:17:16;;;;;;;4.82;2.03;;;23.30;78.70;;;;;;5003603;28;20215;-45
2022/07/30 10:19:48;;;;;;;6.68;1.70;;;23.40;79.00;;;;;;5021966;28;20215;-50
2022/07/30 10:22:52;;;;;;;4.70;1.85;;;23.50;79.30;;;;;;5015852;28;20196;-47
2022/07/30 10:25:33;;;;;;;4.90;1.48;;;23.60;78.60;;;;;;5028758;28;20581;-51
2022/07/30 10:28:18;;;;;;;4.13;1.92;;;23.60;77.70;;;;;;5018019;28;20187;-47
2022/07/30 10:30:47;;;;;;;5.10;2.00;;;23.60;77.50;;;;;;5028820;28;20671;-50
2022/07/30 10:33:13;;;;;;;3.70;1.50;;;23.60;77.40;;;;;;5017172;28;20263;-48
2022/07/30 10:35:39;;;;;;;3.33;1.63;;;23.70;77.60;;;;;;5028133;28;20635;-48
2022/07/30 10:38:10;;;;;;;4.63;1.52;;;23.80;77.60;;;;;;5028529;28;20302;-48
2022/07/30 10:40:41;;;;;;;3.88;1.60;;;23.80;77.00;;;;;;5025231;28;20195;-52
2022/07/30 10:43:50;;;;;;;2.50;1.50;;;23.80;77.00;;;;;;5020468;28;20187;-53
2022/07/30 10:46:37;;;;;;;6.00;1.60;;;23.80;77.50;;;;;;5023564;28;20628;-52
2022/07/30 10:49:09;;;;;;;4.22;1.42;;;23.90;76.30;;;;;;5030861;28;20251;-48
2022/07/30 10:51:56;;;;;;;5.90;1.77;;;23.90;76.10;;;;;;5033357;28;20196;-53
2022/07/30 10:54:34;;;;;;;3.55;1.40;;;24.00;75.50;;;;;;5026690;28;20176;-52
2022/07/30 10:57:15;;;;;;;3.17;1.50;;;24.00;75.70;;;;;;5028751;28;20211;-49
2022/07/30 11:00:06;;;;;;;5.57;1.90;;;24.10;75.70;;;;;;5023692;28;20644;-47
2022/07/30 11:02:34;;;;;;;4.60;1.40;;;24.10;76.00;;;;;;5030393;28;20264;-51
2022/07/30 11:05:18;;;;;;;2.95;1.50;;;24.20;76.70;;;;;;5015093;28;20639;-51
2022/07/30 11:07:45;;;;;;;4.30;1.40;;;24.30;76.30;;;;;;5028495;28;20578;-52
2022/07/30 11:10:35;;;;;;;4.65;1.75;;;24.40;75.30;;;;;;5020485;28;20192;-53
2022/07/30 11:13:01;;;;;;;4.85;1.98;;;24.50;74.70;;;;;;5014492;28;20204;-50
2022/07/30 11:15:50;;;;;;;4.13;1.80;;;24.50;74.40;;;;;;5024067;28;20180;-51
2022/07/30 11:18:16;;;;;;;4.22;1.50;;;24.40;74.60;;;;;;4994091;28;20216;-57
2022/07/30 11:21:02;;;;;;;4.03;1.60;;;24.50;74.50;;;;;;5029687;28;20196;-53
2022/07/30 11:23:27;;;;;;;4.22;1.50;;;24.40;73.70;;;;;;5013580;28;20196;-53
2022/07/30 11:25:53;;;;;;;7.90;2.10;;;24.40;73.70;;;;;;5029011;28;20516;-53
2022/07/30 11:28:44;;;;;;;2.97;1.40;;;24.40;73.80;;;;;;5034074;28;20281;-48
2022/07/30 11:31:31;;;;;;;4.10;1.30;;;24.30;73.10;;;;;;5016591;28;20191;-53
2022/07/30 11:34:18;;;;;;;4.95;1.75;;;24.30;73.40;;;;;;5031517;28;20540;-48
2022/07/30 11:37:13;;;;;;;6.85;1.50;;;24.20;73.60;;;;;;5029514;28;20588;-50
2022/07/30 11:39:54;;;;;;;3.08;1.52;;;24.20;73.40;;;;;;5018294;28;20712;-53
2022/07/30 11:42:33;;;;;;;4.63;1.48;;;24.10;73.40;;;;;;5014244;28;20243;-52
2022/07/30 11:45:14;;;;;;;3.17;1.50;;;23.90;73.90;;;;;;5023059;28;20179;-50
2022/07/30 11:47:48;;;;;;;5.70;1.88;;;23.80;74.80;;;;;;5041510;28;20192;-50
2022/07/30 11:50:21;;;;;;;4.50;1.80;;;23.80;74.00;;;;;;5042115;28;20194;-53
2022/07/30 11:52:53;;;;;;;4.22;1.50;;;23.70;74.20;;;;;;5020988;28;20189;-50
2022/07/30 11:55:24;;;;;;;6.93;1.55;;;23.60;74.90;;;;;;5023211;28;20584;-52
2022/07/30 11:57:50;;;;;;;3.30;1.52;;;23.50;74.30;;;;;;5025496;28;20693;-50
2022/07/30 12:00:17;;;;;;;6.53;1.40;;;23.50;74.90;;;;;;5023314;28;20180;-53
2022/07/30 12:02:44;;;;;;;8.38;1.48;;;23.50;74.10;;;;;;5014056;28;20184;-53
2022/07/30 12:05:10;;;;;;;6.25;1.58;;;23.40;74.20;;;;;;5014192;28;20177;-48
2022/07/30 12:07:36;;;;;;;7.07;1.60;;;23.40;74.30;;;;;;5028703;28;20227;-49
2022/07/30 12:10:17;;;;;;;4.05;1.48;;;23.50;74.40;;;;;;5018916;28;20255;-51
2022/07/30 12:12:46;;;;;;;2.78;1.30;;;23.40;74.60;;;;;;5013441;28;20192;-50
2022/07/30 12:15:31;;;;;;;3.95;1.30;;;23.40;74.70;;;;;;5019784;28;20586;-52
2022/07/30 12:17:58;;;;;;;5.93;1.35;;;23.40;75.60;;;;;;5028152;28;20294;-51
2022/07/30 12:20:24;;;;;;;6.50;1.90;;;23.50;75.80;;;;;;5019723;28;20184;-52
2022/07/30 12:22:50;;;;;;;8.88;2.35;;;23.50;75.20;;;;;;5029783;28;20624;-49
2022/07/30 12:25:16;;;;;;;6.82;1.38;;;23.50;74.80;;;;;;5014458;28;20181;-48
2022/07/30 12:27:46;;;;;;;6.82;1.60;;;23.60;74.90;;;;;;5015380;28;20192;-51
2022/07/30 12:30:13;;;;;;;4.32;1.08;;;23.70;74.80;;;;;;5020543;28;20190;-53
2022/07/30 12:32:40;;;;;;;6.68;1.33;;;23.80;74.20;;;;;;5020204;28;20192;-53
2022/07/30 12:35:06;;;;;;;6.22;1.67;;;23.90;74.00;;;;;;5012544;28;20216;-50
2022/07/30 12:37:31;;;;;;;5.07;1.48;;;24.00;73.90;;;;;;5028258;28;20710;-53
2022/07/30 12:40:12;;;;;;;4.40;1.73;;;24.10;73.90;;;;;;5033235;28;20188;-48
2022/07/30 12:42:51;;;;;;;3.42;1.38;;;24.20;74.20;;;;;;5020714;28;20282;-49
2022/07/30 12:45:27;;;;;;;6.50;1.88;;;24.30;74.40;;;;;;5022199;28;20176;-48
2022/07/30 12:47:52;;;;;;;4.35;1.60;;;24.50;74.60;;;;;;5014027;28;20192;-51
2022/07/30 12:50:18;;;;;;;4.03;1.50;;;24.70;74.30;;;;;;5012712;28;20611;-53
2022/07/30 12:52:50;;;;;;;4.93;1.40;;;24.70;73.90;;;;;;5014227;28;20683;-50
2022/07/30 12:55:18;;;;;;;3.53;1.30;;;24.80;74.10;;;;;;5011861;28;20192;-53
2022/07/30 12:58:00;;;;;;;5.75;1.60;;;24.80;74.30;;;;;;5020412;28;20295;-53
2022/07/30 13:00:54;;;;;;;6.60;1.35;;;25.00;74.70;;;;;;5010767;28;20212;-57
2022/07/30 13:03:24;;;;;;;6.25;1.48;;;25.20;74.60;;;;;;5011736;28;20257;-48
2022/07/30 13:05:53;;;;;;;3.95;1.50;;;25.20;73.70;;;;;;5024551;28;20315;-51
2022/07/30 13:08:19;;;;;;;4.80;1.60;;;25.20;71.80;;;;;;5011743;28;20596;-50
2022/07/30 13:11:00;;;;;;;8.75;1.33;;;25.10;71.60;;;;;;5013672;28;20283;-49